sensor_id;sensor_type;location;lat;lon;timestamp;P1;durP1;ratioP1;P2;durP2;ratioP2
16286;SDS011;8251;53.568;10.018;2023-12-07T00:01:15;91.53;;;29.50;;
16286;SDS011;8251;53.568;10.018;2023-12-07T00:03:43;96.80;;;30.07;;
16286;SDS011;8251;53.568;10.018;2023-12-07T00:06:10;96.53;;;29.67;;
16286;SDS011;8251;53.568;10.018;2023-12-07T00:08:38;99.43;;;29.67;;
16286;SDS011;8251;53.568;10.018;2023-12-07T00:11:06;84.93;;;27.53;;
16286;SDS011;8251;53.568;10.018;2023-12-07T00:13:34;84.70;;;29.40;;
16286;SDS011;8251;53.568;10.018;2023-12-07T00:16:02;76.77;;;27.20;;
16286;SDS011;8251;53.568;10.018;2023-12-07T00:18:30;84.13;;;26.67;;
16286;SDS011;8251;53.568;10.018;2023-12-07T00:20:58;77.63;;;26.67;;
16286;SDS011;8251;53.568;10.018;2023-12-07T00:23:24;73.67;;;26.00;;
16286;SDS011;8251;53.568;10.018;2023-12-07T00:25:51;74.87;;;27.20;;
16286;SDS011;8251;53.568;10.018;2023-12-07T00:28:18;80.33;;;27.33;;
16286;SDS011;8251;53.568;10.018;2023-12-07T00:30:47;86.77;;;28.10;;
16286;SDS011;8251;53.568;10.018;2023-12-07T00:33:14;81.93;;;29.23;;
16286;SDS011;8251;53.568;10.018;2023-12-07T00:35:42;75.87;;;26.40;;
16286;SDS011;8251;53.568;10.018;2023-12-07T00:38:09;88.13;;;28.10;;
16286;SDS011;8251;53.568;10.018;2023-12-07T00:40:43;83.43;;;27.13;;
16286;SDS011;8251;53.568;10.018;2023-12-07T00:43:12;72.90;;;25.77;;
16286;SDS011;8251;53.568;10.018;2023-12-07T00:45:39;73.23;;;26.27;;
16286;SDS011;8251;53.568;10.018;2023-12-07T00:48:08;75.03;;;25.60;;
16286;SDS011;8251;53.568;10.018;2023-12-07T00:50:35;74.33;;;25.43;;
16286;SDS011;8251;53.568;10.018;2023-12-07T00:53:03;70.07;;;25.57;;
16286;SDS011;8251;53.568;10.018;2023-12-07T00:55:30;82.17;;;28.30;;
16286;SDS011;8251;53.568;10.018;2023-12-07T00:57:58;73.60;;;26.03;;
16286;SDS011;8251;53.568;10.018;2023-12-07T01:00:26;78.50;;;24.47;;
16286;SDS011;8251;53.568;10.018;2023-12-07T01:02:53;74.10;;;27.60;;
16286;SDS011;8251;53.568;10.018;2023-12-07T01:05:37;81.03;;;26.97;;
16286;SDS011;8251;53.568;10.018;2023-12-07T01:08:07;72.90;;;25.20;;
16286;SDS011;8251;53.568;10.018;2023-12-07T01:10:34;76.53;;;26.40;;
16286;SDS011;8251;53.568;10.018;2023-12-07T01:13:01;77.00;;;26.37;;
16286;SDS011;8251;53.568;10.018;2023-12-07T01:15:28;70.93;;;24.10;;
16286;SDS011;8251;53.568;10.018;2023-12-07T01:17:55;75.03;;;28.00;;
16286;SDS011;8251;53.568;10.018;2023-12-07T01:20:24;75.53;;;26.33;;
16286;SDS011;8251;53.568;10.018;2023-12-07T01:22:52;76.43;;;26.93;;
16286;SDS011;8251;53.568;10.018;2023-12-07T01:25:20;82.03;;;29.37;;
16286;SDS011;8251;53.568;10.018;2023-12-07T01:27:47;72.53;;;25.80;;
16286;SDS011;8251;53.568;10.018;2023-12-07T01:30:15;80.40;;;28.23;;
16286;SDS011;8251;53.568;10.018;2023-12-07T01:32:42;73.57;;;26.03;;
16286;SDS011;8251;53.568;10.018;2023-12-07T01:35:10;73.20;;;24.43;;
16286;SDS011;8251;53.568;10.018;2023-12-07T01:37:37;79.43;;;26.07;;
16286;SDS011;8251;53.568;10.018;2023-12-07T01:40:07;74.67;;;26.77;;
16286;SDS011;8251;53.568;10.018;2023-12-07T01:42:35;77.03;;;27.63;;
16286;SDS011;8251;53.568;10.018;2023-12-07T01:45:05;75.47;;;27.07;;
16286;SDS011;8251;53.568;10.018;2023-12-07T01:47:33;84.93;;;28.20;;
16286;SDS011;8251;53.568;10.018;2023-12-07T01:50:02;79.40;;;27.57;;
16286;SDS011;8251;53.568;10.018;2023-12-07T01:52:34;82.10;;;26.93;;
16286;SDS011;8251;53.568;10.018;2023-12-07T01:55:04;83.60;;;27.40;;
16286;SDS011;8251;53.568;10.018;2023-12-07T01:57:38;98.70;;;29.00;;
16286;SDS011;8251;53.568;10.018;2023-12-07T02:00:07;100.73;;;31.10;;
16286;SDS011;8251;53.568;10.018;2023-12-07T02:02:36;83.47;;;26.80;;
16286;SDS011;8251;53.568;10.018;2023-12-07T02:05:04;83.13;;;27.93;;
16286;SDS011;8251;53.568;10.018;2023-12-07T02:07:33;81.27;;;26.90;;
16286;SDS011;8251;53.568;10.018;2023-12-07T02:10:04;84.17;;;27.30;;
16286;SDS011;8251;53.568;10.018;2023-12-07T02:12:33;76.37;;;26.13;;
16286;SDS011;8251;53.568;10.018;2023-12-07T02:15:01;78.77;;;26.40;;
16286;SDS011;8251;53.568;10.018;2023-12-07T02:17:31;70.97;;;23.23;;
16286;SDS011;8251;53.568;10.018;2023-12-07T02:20:10;87.47;;;28.40;;
16286;SDS011;8251;53.568;10.018;2023-12-07T02:22:44;75.80;;;25.23;;
16286;SDS011;8251;53.568;10.018;2023-12-07T02:25:23;73.57;;;25.53;;
16286;SDS011;8251;53.568;10.018;2023-12-07T02:27:53;71.53;;;23.77;;
16286;SDS011;8251;53.568;10.018;2023-12-07T02:30:20;88.07;;;26.17;;
16286;SDS011;8251;53.568;10.018;2023-12-07T02:32:47;80.57;;;25.33;;
16286;SDS011;8251;53.568;10.018;2023-12-07T02:35:14;81.63;;;25.97;;
16286;SDS011;8251;53.568;10.018;2023-12-07T02:37:43;76.03;;;24.93;;
16286;SDS011;8251;53.568;10.018;2023-12-07T02:40:12;67.73;;;23.50;;
16286;SDS011;8251;53.568;10.018;2023-12-07T02:42:53;68.73;;;24.43;;
16286;SDS011;8251;53.568;10.018;2023-12-07T02:45:21;72.97;;;23.47;;
16286;SDS011;8251;53.568;10.018;2023-12-07T02:47:48;84.73;;;26.03;;
16286;SDS011;8251;53.568;10.018;2023-12-07T02:50:15;70.10;;;25.20;;
16286;SDS011;8251;53.568;10.018;2023-12-07T02:52:42;62.73;;;22.77;;
16286;SDS011;8251;53.568;10.018;2023-12-07T02:55:09;65.93;;;22.53;;
16286;SDS011;8251;53.568;10.018;2023-12-07T02:57:38;63.73;;;23.07;;
16286;SDS011;8251;53.568;10.018;2023-12-07T03:00:07;63.70;;;22.80;;
16286;SDS011;8251;53.568;10.018;2023-12-07T03:02:38;75.63;;;24.83;;
16286;SDS011;8251;53.568;10.018;2023-12-07T03:05:14;61.80;;;22.47;;
16286;SDS011;8251;53.568;10.018;2023-12-07T03:07:41;62.33;;;22.57;;
16286;SDS011;8251;53.568;10.018;2023-12-07T03:10:08;61.93;;;22.93;;
16286;SDS011;8251;53.568;10.018;2023-12-07T03:12:36;63.40;;;25.60;;
16286;SDS011;8251;53.568;10.018;2023-12-07T03:15:04;64.40;;;24.10;;
16286;SDS011;8251;53.568;10.018;2023-12-07T03:17:33;65.27;;;24.13;;
16286;SDS011;8251;53.568;10.018;2023-12-07T03:19:59;69.97;;;23.70;;
16286;SDS011;8251;53.568;10.018;2023-12-07T03:22:26;62.13;;;23.60;;
16286;SDS011;8251;53.568;10.018;2023-12-07T03:24:54;67.87;;;24.40;;
16286;SDS011;8251;53.568;10.018;2023-12-07T03:27:22;63.67;;;24.17;;
16286;SDS011;8251;53.568;10.018;2023-12-07T03:29:49;68.77;;;24.50;;
16286;SDS011;8251;53.568;10.018;2023-12-07T03:32:17;62.37;;;23.10;;
16286;SDS011;8251;53.568;10.018;2023-12-07T03:34:46;71.97;;;25.27;;
16286;SDS011;8251;53.568;10.018;2023-12-07T03:37:13;57.23;;;22.63;;
16286;SDS011;8251;53.568;10.018;2023-12-07T03:39:42;60.27;;;22.60;;
16286;SDS011;8251;53.568;10.018;2023-12-07T03:42:09;64.03;;;23.13;;
16286;SDS011;8251;53.568;10.018;2023-12-07T03:44:37;65.97;;;22.70;;
16286;SDS011;8251;53.568;10.018;2023-12-07T03:47:05;54.70;;;21.37;;
16286;SDS011;8251;53.568;10.018;2023-12-07T03:49:32;57.97;;;24.60;;
16286;SDS011;8251;53.568;10.018;2023-12-07T03:52:03;60.87;;;23.20;;
16286;SDS011;8251;53.568;10.018;2023-12-07T03:54:30;55.00;;;22.17;;
16286;SDS011;8251;53.568;10.018;2023-12-07T03:56:59;59.27;;;21.77;;
16286;SDS011;8251;53.568;10.018;2023-12-07T03:59:28;60.50;;;23.77;;
16286;SDS011;8251;53.568;10.018;2023-12-07T04:01:56;56.47;;;22.33;;
16286;SDS011;8251;53.568;10.018;2023-12-07T04:04:24;60.03;;;24.27;;
16286;SDS011;8251;53.568;10.018;2023-12-07T04:06:51;59.10;;;24.03;;
16286;SDS011;8251;53.568;10.018;2023-12-07T04:09:20;58.03;;;23.33;;
16286;SDS011;8251;53.568;10.018;2023-12-07T04:11:48;58.23;;;23.90;;
16286;SDS011;8251;53.568;10.018;2023-12-07T04:14:18;53.73;;;22.53;;
16286;SDS011;8251;53.568;10.018;2023-12-07T04:16:46;59.97;;;24.83;;
16286;SDS011;8251;53.568;10.018;2023-12-07T04:19:13;52.40;;;22.77;;
16286;SDS011;8251;53.568;10.018;2023-12-07T04:21:44;51.70;;;21.33;;
16286;SDS011;8251;53.568;10.018;2023-12-07T04:24:11;59.53;;;22.83;;
16286;SDS011;8251;53.568;10.018;2023-12-07T04:26:39;51.27;;;24.10;;
16286;SDS011;8251;53.568;10.018;2023-12-07T04:29:08;55.10;;;22.23;;
16286;SDS011;8251;53.568;10.018;2023-12-07T04:31:36;53.50;;;22.97;;
16286;SDS011;8251;53.568;10.018;2023-12-07T04:34:03;57.23;;;22.00;;
16286;SDS011;8251;53.568;10.018;2023-12-07T04:36:30;48.63;;;21.80;;
16286;SDS011;8251;53.568;10.018;2023-12-07T04:39:07;59.23;;;23.20;;
16286;SDS011;8251;53.568;10.018;2023-12-07T04:41:35;51.57;;;21.30;;
16286;SDS011;8251;53.568;10.018;2023-12-07T04:44:03;54.83;;;22.17;;
16286;SDS011;8251;53.568;10.018;2023-12-07T04:46:35;50.93;;;21.90;;
16286;SDS011;8251;53.568;10.018;2023-12-07T04:49:02;56.23;;;24.00;;
16286;SDS011;8251;53.568;10.018;2023-12-07T04:51:29;52.90;;;24.60;;
16286;SDS011;8251;53.568;10.018;2023-12-07T04:53:56;57.60;;;21.37;;
16286;SDS011;8251;53.568;10.018;2023-12-07T04:56:23;51.47;;;22.27;;
16286;SDS011;8251;53.568;10.018;2023-12-07T04:58:51;55.03;;;22.33;;
16286;SDS011;8251;53.568;10.018;2023-12-07T05:01:19;57.00;;;23.23;;
16286;SDS011;8251;53.568;10.018;2023-12-07T05:03:48;49.23;;;21.43;;
16286;SDS011;8251;53.568;10.018;2023-12-07T05:06:15;58.60;;;22.80;;
16286;SDS011;8251;53.568;10.018;2023-12-07T05:08:42;56.60;;;23.27;;
16286;SDS011;8251;53.568;10.018;2023-12-07T05:11:10;56.60;;;24.23;;
16286;SDS011;8251;53.568;10.018;2023-12-07T05:13:37;49.00;;;21.07;;
16286;SDS011;8251;53.568;10.018;2023-12-07T05:16:06;48.67;;;22.10;;
16286;SDS011;8251;53.568;10.018;2023-12-07T05:18:34;53.87;;;22.57;;
16286;SDS011;8251;53.568;10.018;2023-12-07T05:21:02;49.47;;;22.20;;
16286;SDS011;8251;53.568;10.018;2023-12-07T05:23:29;49.03;;;20.87;;
16286;SDS011;8251;53.568;10.018;2023-12-07T05:25:56;45.03;;;19.40;;
16286;SDS011;8251;53.568;10.018;2023-12-07T05:28:24;46.83;;;19.63;;
16286;SDS011;8251;53.568;10.018;2023-12-07T05:30:53;49.63;;;21.70;;
16286;SDS011;8251;53.568;10.018;2023-12-07T05:33:22;43.20;;;19.30;;
16286;SDS011;8251;53.568;10.018;2023-12-07T05:35:59;43.33;;;20.20;;
16286;SDS011;8251;53.568;10.018;2023-12-07T05:38:28;39.77;;;18.67;;
16286;SDS011;8251;53.568;10.018;2023-12-07T05:40:55;43.63;;;20.43;;
16286;SDS011;8251;53.568;10.018;2023-12-07T05:43:22;42.90;;;19.73;;
16286;SDS011;8251;53.568;10.018;2023-12-07T05:45:49;41.33;;;19.10;;
16286;SDS011;8251;53.568;10.018;2023-12-07T05:48:16;40.53;;;19.30;;
16286;SDS011;8251;53.568;10.018;2023-12-07T05:50:44;44.40;;;18.87;;
16286;SDS011;8251;53.568;10.018;2023-12-07T05:53:13;40.13;;;19.73;;
16286;SDS011;8251;53.568;10.018;2023-12-07T05:55:40;44.23;;;19.93;;
16286;SDS011;8251;53.568;10.018;2023-12-07T05:58:09;43.77;;;20.50;;
16286;SDS011;8251;53.568;10.018;2023-12-07T06:00:36;46.30;;;21.07;;
16286;SDS011;8251;53.568;10.018;2023-12-07T06:03:05;40.27;;;19.73;;
16286;SDS011;8251;53.568;10.018;2023-12-07T06:05:37;45.37;;;19.93;;
16286;SDS011;8251;53.568;10.018;2023-12-07T06:08:06;38.30;;;18.67;;
16286;SDS011;8251;53.568;10.018;2023-12-07T06:10:35;45.17;;;18.73;;
16286;SDS011;8251;53.568;10.018;2023-12-07T06:13:02;42.00;;;19.77;;
16286;SDS011;8251;53.568;10.018;2023-12-07T06:15:31;46.33;;;20.87;;
16286;SDS011;8251;53.568;10.018;2023-12-07T06:17:59;42.07;;;18.83;;
16286;SDS011;8251;53.568;10.018;2023-12-07T06:20:26;46.47;;;21.50;;
16286;SDS011;8251;53.568;10.018;2023-12-07T06:22:53;41.83;;;19.13;;
16286;SDS011;8251;53.568;10.018;2023-12-07T06:25:20;40.07;;;20.63;;
16286;SDS011;8251;53.568;10.018;2023-12-07T06:27:48;46.37;;;20.77;;
16286;SDS011;8251;53.568;10.018;2023-12-07T06:30:15;46.23;;;20.60;;
16286;SDS011;8251;53.568;10.018;2023-12-07T06:32:43;45.17;;;20.50;;
16286;SDS011;8251;53.568;10.018;2023-12-07T06:35:11;45.53;;;20.17;;
16286;SDS011;8251;53.568;10.018;2023-12-07T06:37:38;47.47;;;20.87;;
16286;SDS011;8251;53.568;10.018;2023-12-07T06:40:06;44.07;;;21.10;;
16286;SDS011;8251;53.568;10.018;2023-12-07T06:42:36;42.23;;;20.23;;
16286;SDS011;8251;53.568;10.018;2023-12-07T06:45:06;42.33;;;22.13;;
16286;SDS011;8251;53.568;10.018;2023-12-07T06:47:36;39.70;;;19.97;;
16286;SDS011;8251;53.568;10.018;2023-12-07T06:50:03;49.97;;;21.47;;
16286;SDS011;8251;53.568;10.018;2023-12-07T06:52:33;46.27;;;20.87;;
16286;SDS011;8251;53.568;10.018;2023-12-07T06:55:00;46.43;;;21.73;;
16286;SDS011;8251;53.568;10.018;2023-12-07T06:57:27;43.57;;;20.87;;
16286;SDS011;8251;53.568;10.018;2023-12-07T06:59:54;49.97;;;21.77;;
16286;SDS011;8251;53.568;10.018;2023-12-07T07:02:23;46.83;;;21.30;;
16286;SDS011;8251;53.568;10.018;2023-12-07T07:04:50;43.90;;;20.73;;
16286;SDS011;8251;53.568;10.018;2023-12-07T07:07:20;47.20;;;20.33;;
16286;SDS011;8251;53.568;10.018;2023-12-07T07:09:47;44.90;;;20.43;;
16286;SDS011;8251;53.568;10.018;2023-12-07T07:12:15;53.63;;;22.67;;
16286;SDS011;8251;53.568;10.018;2023-12-07T07:14:43;44.93;;;22.13;;
16286;SDS011;8251;53.568;10.018;2023-12-07T07:17:11;46.63;;;22.10;;
16286;SDS011;8251;53.568;10.018;2023-12-07T07:19:39;47.33;;;22.30;;
16286;SDS011;8251;53.568;10.018;2023-12-07T07:22:07;51.90;;;22.13;;
16286;SDS011;8251;53.568;10.018;2023-12-07T07:24:35;50.53;;;23.50;;
16286;SDS011;8251;53.568;10.018;2023-12-07T07:27:02;44.63;;;22.60;;
16286;SDS011;8251;53.568;10.018;2023-12-07T07:29:30;47.73;;;21.47;;
16286;SDS011;8251;53.568;10.018;2023-12-07T07:31:59;50.70;;;21.60;;
16286;SDS011;8251;53.568;10.018;2023-12-07T07:34:26;48.27;;;22.23;;
16286;SDS011;8251;53.568;10.018;2023-12-07T07:37:03;44.53;;;20.80;;
16286;SDS011;8251;53.568;10.018;2023-12-07T07:39:33;47.43;;;22.10;;
16286;SDS011;8251;53.568;10.018;2023-12-07T07:42:02;50.70;;;23.13;;
16286;SDS011;8251;53.568;10.018;2023-12-07T07:44:29;51.67;;;22.10;;
16286;SDS011;8251;53.568;10.018;2023-12-07T07:46:58;47.80;;;23.43;;
16286;SDS011;8251;53.568;10.018;2023-12-07T07:49:25;52.87;;;22.50;;
16286;SDS011;8251;53.568;10.018;2023-12-07T07:51:52;45.90;;;21.63;;
16286;SDS011;8251;53.568;10.018;2023-12-07T07:54:20;47.70;;;22.17;;
16286;SDS011;8251;53.568;10.018;2023-12-07T07:56:47;50.13;;;21.50;;
16286;SDS011;8251;53.568;10.018;2023-12-07T07:59:14;47.53;;;23.23;;
16286;SDS011;8251;53.568;10.018;2023-12-07T08:01:43;40.87;;;20.63;;
16286;SDS011;8251;53.568;10.018;2023-12-07T08:04:15;42.97;;;21.37;;
16286;SDS011;8251;53.568;10.018;2023-12-07T08:06:43;42.87;;;21.67;;
16286;SDS011;8251;53.568;10.018;2023-12-07T08:09:10;41.70;;;20.33;;
16286;SDS011;8251;53.568;10.018;2023-12-07T08:11:40;47.43;;;22.47;;
16286;SDS011;8251;53.568;10.018;2023-12-07T08:14:10;41.30;;;20.90;;
16286;SDS011;8251;53.568;10.018;2023-12-07T08:16:42;43.63;;;22.33;;
16286;SDS011;8251;53.568;10.018;2023-12-07T08:19:13;41.47;;;20.80;;
16286;SDS011;8251;53.568;10.018;2023-12-07T08:21:41;48.63;;;21.17;;
16286;SDS011;8251;53.568;10.018;2023-12-07T08:24:08;42.70;;;20.90;;
16286;SDS011;8251;53.568;10.018;2023-12-07T08:26:40;51.33;;;22.77;;
16286;SDS011;8251;53.568;10.018;2023-12-07T08:29:09;47.77;;;21.30;;
16286;SDS011;8251;53.568;10.018;2023-12-07T08:31:36;45.77;;;22.13;;
16286;SDS011;8251;53.568;10.018;2023-12-07T08:34:04;51.03;;;22.37;;
16286;SDS011;8251;53.568;10.018;2023-12-07T08:36:44;48.23;;;22.80;;
16286;SDS011;8251;53.568;10.018;2023-12-07T08:39:11;47.40;;;21.77;;
16286;SDS011;8251;53.568;10.018;2023-12-07T08:41:43;45.37;;;23.47;;
16286;SDS011;8251;53.568;10.018;2023-12-07T08:44:11;47.33;;;25.17;;
16286;SDS011;8251;53.568;10.018;2023-12-07T08:46:40;51.93;;;24.73;;
16286;SDS011;8251;53.568;10.018;2023-12-07T08:49:13;59.13;;;27.53;;
16286;SDS011;8251;53.568;10.018;2023-12-07T08:51:41;54.40;;;25.30;;
16286;SDS011;8251;53.568;10.018;2023-12-07T08:54:08;54.80;;;24.13;;
16286;SDS011;8251;53.568;10.018;2023-12-07T08:56:37;57.20;;;24.17;;
16286;SDS011;8251;53.568;10.018;2023-12-07T08:59:07;51.73;;;24.13;;
16286;SDS011;8251;53.568;10.018;2023-12-07T09:01:37;46.67;;;23.20;;
16286;SDS011;8251;53.568;10.018;2023-12-07T09:04:04;48.03;;;24.03;;
16286;SDS011;8251;53.568;10.018;2023-12-07T09:06:38;52.93;;;22.57;;
16286;SDS011;8251;53.568;10.018;2023-12-07T09:09:08;49.50;;;23.50;;
16286;SDS011;8251;53.568;10.018;2023-12-07T09:11:45;46.37;;;20.83;;
16286;SDS011;8251;53.568;10.018;2023-12-07T09:14:15;51.37;;;24.63;;
16286;SDS011;8251;53.568;10.018;2023-12-07T09:16:43;49.27;;;23.80;;
16286;SDS011;8251;53.568;10.018;2023-12-07T09:19:10;47.63;;;22.80;;
16286;SDS011;8251;53.568;10.018;2023-12-07T09:21:38;54.30;;;23.83;;
16286;SDS011;8251;53.568;10.018;2023-12-07T09:24:06;56.30;;;25.87;;
16286;SDS011;8251;53.568;10.018;2023-12-07T09:26:33;52.53;;;25.30;;
16286;SDS011;8251;53.568;10.018;2023-12-07T09:29:00;50.10;;;22.67;;
16286;SDS011;8251;53.568;10.018;2023-12-07T09:31:27;56.43;;;24.30;;
16286;SDS011;8251;53.568;10.018;2023-12-07T09:33:54;57.13;;;23.77;;
16286;SDS011;8251;53.568;10.018;2023-12-07T09:36:21;53.07;;;24.40;;
16286;SDS011;8251;53.568;10.018;2023-12-07T09:38:49;52.37;;;23.10;;
16286;SDS011;8251;53.568;10.018;2023-12-07T09:41:16;51.37;;;24.10;;
16286;SDS011;8251;53.568;10.018;2023-12-07T09:43:43;58.33;;;26.37;;
16286;SDS011;8251;53.568;10.018;2023-12-07T09:46:10;51.10;;;24.30;;
16286;SDS011;8251;53.568;10.018;2023-12-07T09:48:39;51.77;;;23.83;;
16286;SDS011;8251;53.568;10.018;2023-12-07T09:51:09;50.23;;;25.50;;
16286;SDS011;8251;53.568;10.018;2023-12-07T09:53:37;57.53;;;26.20;;
16286;SDS011;8251;53.568;10.018;2023-12-07T09:56:06;54.33;;;24.60;;
16286;SDS011;8251;53.568;10.018;2023-12-07T09:58:34;54.27;;;27.00;;
16286;SDS011;8251;53.568;10.018;2023-12-07T10:01:01;55.97;;;26.97;;
16286;SDS011;8251;53.568;10.018;2023-12-07T10:03:28;56.60;;;27.47;;
16286;SDS011;8251;53.568;10.018;2023-12-07T10:05:57;57.10;;;25.07;;
16286;SDS011;8251;53.568;10.018;2023-12-07T10:08:28;50.83;;;24.27;;
16286;SDS011;8251;53.568;10.018;2023-12-07T10:11:04;58.67;;;27.23;;
16286;SDS011;8251;53.568;10.018;2023-12-07T10:13:32;57.57;;;27.40;;
16286;SDS011;8251;53.568;10.018;2023-12-07T10:16:07;54.17;;;26.83;;
16286;SDS011;8251;53.568;10.018;2023-12-07T10:18:35;56.00;;;24.93;;
16286;SDS011;8251;53.568;10.018;2023-12-07T10:21:08;60.87;;;26.70;;
16286;SDS011;8251;53.568;10.018;2023-12-07T10:23:36;50.50;;;25.13;;
16286;SDS011;8251;53.568;10.018;2023-12-07T10:26:05;56.27;;;27.87;;
16286;SDS011;8251;53.568;10.018;2023-12-07T10:28:33;56.67;;;26.67;;
16286;SDS011;8251;53.568;10.018;2023-12-07T10:31:02;59.20;;;27.37;;
16286;SDS011;8251;53.568;10.018;2023-12-07T10:33:29;59.83;;;29.33;;
16286;SDS011;8251;53.568;10.018;2023-12-07T10:35:56;63.73;;;28.13;;
16286;SDS011;8251;53.568;10.018;2023-12-07T10:38:25;61.27;;;27.83;;
16286;SDS011;8251;53.568;10.018;2023-12-07T10:41:02;54.97;;;25.77;;
16286;SDS011;8251;53.568;10.018;2023-12-07T10:43:31;68.60;;;29.33;;
16286;SDS011;8251;53.568;10.018;2023-12-07T10:46:02;65.47;;;27.07;;
16286;SDS011;8251;53.568;10.018;2023-12-07T10:48:31;62.47;;;29.17;;
16286;SDS011;8251;53.568;10.018;2023-12-07T10:50:59;62.63;;;29.33;;
16286;SDS011;8251;53.568;10.018;2023-12-07T10:53:32;66.60;;;29.23;;
16286;SDS011;8251;53.568;10.018;2023-12-07T10:56:06;71.70;;;30.60;;
16286;SDS011;8251;53.568;10.018;2023-12-07T10:58:39;73.30;;;29.17;;
16286;SDS011;8251;53.568;10.018;2023-12-07T11:01:07;61.93;;;26.10;;
16286;SDS011;8251;53.568;10.018;2023-12-07T11:03:35;60.53;;;26.07;;
16286;SDS011;8251;53.568;10.018;2023-12-07T11:06:03;61.33;;;26.57;;
16286;SDS011;8251;53.568;10.018;2023-12-07T11:08:35;64.27;;;27.83;;
16286;SDS011;8251;53.568;10.018;2023-12-07T11:11:06;57.90;;;25.23;;
16286;SDS011;8251;53.568;10.018;2023-12-07T11:13:38;58.20;;;24.60;;
16286;SDS011;8251;53.568;10.018;2023-12-07T11:16:12;55.27;;;25.00;;
16286;SDS011;8251;53.568;10.018;2023-12-07T11:18:39;56.77;;;24.57;;
16286;SDS011;8251;53.568;10.018;2023-12-07T11:21:06;60.33;;;25.37;;
16286;SDS011;8251;53.568;10.018;2023-12-07T11:23:35;59.40;;;25.30;;
16286;SDS011;8251;53.568;10.018;2023-12-07T11:26:03;61.67;;;25.63;;
16286;SDS011;8251;53.568;10.018;2023-12-07T11:28:34;57.97;;;26.20;;
16286;SDS011;8251;53.568;10.018;2023-12-07T11:31:02;61.37;;;25.30;;
16286;SDS011;8251;53.568;10.018;2023-12-07T11:33:29;59.43;;;25.23;;
16286;SDS011;8251;53.568;10.018;2023-12-07T11:36:02;66.97;;;26.83;;
16286;SDS011;8251;53.568;10.018;2023-12-07T11:38:30;56.80;;;25.90;;
16286;SDS011;8251;53.568;10.018;2023-12-07T11:41:05;52.73;;;24.53;;
16286;SDS011;8251;53.568;10.018;2023-12-07T11:43:41;56.37;;;24.33;;
16286;SDS011;8251;53.568;10.018;2023-12-07T11:46:11;57.97;;;26.27;;
16286;SDS011;8251;53.568;10.018;2023-12-07T11:48:45;58.30;;;26.70;;
16286;SDS011;8251;53.568;10.018;2023-12-07T11:51:15;58.43;;;26.80;;
16286;SDS011;8251;53.568;10.018;2023-12-07T11:53:42;52.77;;;22.97;;
16286;SDS011;8251;53.568;10.018;2023-12-07T11:56:11;49.40;;;24.13;;
16286;SDS011;8251;53.568;10.018;2023-12-07T11:58:38;53.80;;;23.93;;
16286;SDS011;8251;53.568;10.018;2023-12-07T12:01:05;58.47;;;23.43;;
16286;SDS011;8251;53.568;10.018;2023-12-07T12:03:34;49.37;;;23.30;;
16286;SDS011;8251;53.568;10.018;2023-12-07T12:06:04;50.20;;;22.80;;
16286;SDS011;8251;53.568;10.018;2023-12-07T12:08:33;58.07;;;25.23;;
16286;SDS011;8251;53.568;10.018;2023-12-07T12:11:00;49.90;;;23.83;;
16286;SDS011;8251;53.568;10.018;2023-12-07T12:13:28;58.37;;;25.17;;
16286;SDS011;8251;53.568;10.018;2023-12-07T12:15:55;45.50;;;22.20;;
16286;SDS011;8251;53.568;10.018;2023-12-07T12:18:23;47.20;;;22.77;;
16286;SDS011;8251;53.568;10.018;2023-12-07T12:20:51;52.93;;;23.57;;
16286;SDS011;8251;53.568;10.018;2023-12-07T12:23:20;43.53;;;22.10;;
16286;SDS011;8251;53.568;10.018;2023-12-07T12:25:47;50.87;;;23.40;;
16286;SDS011;8251;53.568;10.018;2023-12-07T12:28:15;45.77;;;21.60;;
16286;SDS011;8251;53.568;10.018;2023-12-07T12:30:46;55.63;;;21.90;;
16286;SDS011;8251;53.568;10.018;2023-12-07T12:33:13;48.50;;;24.07;;
16286;SDS011;8251;53.568;10.018;2023-12-07T12:35:44;50.37;;;22.87;;
16286;SDS011;8251;53.568;10.018;2023-12-07T12:38:11;48.00;;;24.00;;
16286;SDS011;8251;53.568;10.018;2023-12-07T12:40:41;46.57;;;22.77;;
16286;SDS011;8251;53.568;10.018;2023-12-07T12:43:08;48.20;;;23.50;;
16286;SDS011;8251;53.568;10.018;2023-12-07T12:45:36;42.53;;;21.90;;
16286;SDS011;8251;53.568;10.018;2023-12-07T12:48:05;45.57;;;22.33;;
16286;SDS011;8251;53.568;10.018;2023-12-07T12:50:34;50.63;;;23.37;;
16286;SDS011;8251;53.568;10.018;2023-12-07T12:53:02;42.40;;;22.03;;
16286;SDS011;8251;53.568;10.018;2023-12-07T12:55:31;42.23;;;21.10;;
16286;SDS011;8251;53.568;10.018;2023-12-07T12:58:01;38.40;;;19.60;;
16286;SDS011;8251;53.568;10.018;2023-12-07T13:00:29;43.70;;;21.07;;
16286;SDS011;8251;53.568;10.018;2023-12-07T13:02:58;44.67;;;22.00;;
16286;SDS011;8251;53.568;10.018;2023-12-07T13:05:27;42.20;;;21.33;;
16286;SDS011;8251;53.568;10.018;2023-12-07T13:07:54;42.07;;;21.87;;
16286;SDS011;8251;53.568;10.018;2023-12-07T13:10:21;40.27;;;20.93;;
16286;SDS011;8251;53.568;10.018;2023-12-07T13:12:47;45.80;;;22.83;;
16286;SDS011;8251;53.568;10.018;2023-12-07T13:15:14;49.83;;;23.07;;
16286;SDS011;8251;53.568;10.018;2023-12-07T13:17:41;50.60;;;24.30;;
16286;SDS011;8251;53.568;10.018;2023-12-07T13:20:10;57.13;;;26.63;;
16286;SDS011;8251;53.568;10.018;2023-12-07T13:22:40;53.33;;;24.40;;
16286;SDS011;8251;53.568;10.018;2023-12-07T13:25:08;56.03;;;25.20;;
16286;SDS011;8251;53.568;10.018;2023-12-07T13:27:37;60.83;;;28.77;;
16286;SDS011;8251;53.568;10.018;2023-12-07T13:30:04;61.90;;;26.43;;
16286;SDS011;8251;53.568;10.018;2023-12-07T13:32:32;54.40;;;25.67;;
16286;SDS011;8251;53.568;10.018;2023-12-07T13:35:02;63.00;;;25.60;;
16286;SDS011;8251;53.568;10.018;2023-12-07T13:37:30;53.87;;;23.87;;
16286;SDS011;8251;53.568;10.018;2023-12-07T13:39:59;46.67;;;21.83;;
16286;SDS011;8251;53.568;10.018;2023-12-07T13:42:29;47.87;;;23.10;;
16286;SDS011;8251;53.568;10.018;2023-12-07T13:44:58;46.07;;;23.03;;
16286;SDS011;8251;53.568;10.018;2023-12-07T13:47:25;44.93;;;21.87;;
16286;SDS011;8251;53.568;10.018;2023-12-07T13:49:56;51.40;;;21.83;;
16286;SDS011;8251;53.568;10.018;2023-12-07T13:52:24;47.87;;;21.87;;
16286;SDS011;8251;53.568;10.018;2023-12-07T13:54:51;45.63;;;21.03;;
16286;SDS011;8251;53.568;10.018;2023-12-07T13:57:19;47.90;;;22.07;;
16286;SDS011;8251;53.568;10.018;2023-12-07T13:59:49;45.57;;;22.10;;
16286;SDS011;8251;53.568;10.018;2023-12-07T14:02:16;41.23;;;20.40;;
16286;SDS011;8251;53.568;10.018;2023-12-07T14:04:43;38.03;;;20.57;;
16286;SDS011;8251;53.568;10.018;2023-12-07T14:07:10;38.77;;;19.97;;
16286;SDS011;8251;53.568;10.018;2023-12-07T14:09:39;42.97;;;21.67;;
16286;SDS011;8251;53.568;10.018;2023-12-07T14:12:07;40.10;;;19.47;;
16286;SDS011;8251;53.568;10.018;2023-12-07T14:14:37;37.07;;;20.13;;
16286;SDS011;8251;53.568;10.018;2023-12-07T14:17:04;35.73;;;19.20;;
16286;SDS011;8251;53.568;10.018;2023-12-07T14:19:31;34.60;;;19.17;;
16286;SDS011;8251;53.568;10.018;2023-12-07T14:21:58;36.80;;;17.97;;
16286;SDS011;8251;53.568;10.018;2023-12-07T14:24:25;34.07;;;19.40;;
16286;SDS011;8251;53.568;10.018;2023-12-07T14:26:53;39.00;;;19.60;;
16286;SDS011;8251;53.568;10.018;2023-12-07T14:29:20;37.77;;;18.50;;